sensor_id;sensor_type;location;lat;lon;timestamp;P1;durP1;ratioP1;P2;durP2;ratioP2
24273;SDS011;12392;42.678;23.380;2023-02-28T00:01:00;21.20;;;8.90;;
24273;SDS011;12392;42.678;23.380;2023-02-28T00:03:26;18.02;;;8.48;;
24273;SDS011;12392;42.678;23.380;2023-02-28T00:05:52;20.13;;;8.43;;
24273;SDS011;12392;42.678;23.380;2023-02-28T00:08:17;17.00;;;7.95;;
24273;SDS011;12392;42.678;23.380;2023-02-28T00:10:43;16.77;;;8.60;;
24273;SDS011;12392;42.678;23.380;2023-02-28T00:13:09;16.70;;;8.25;;
24273;SDS011;12392;42.678;23.380;2023-02-28T00:15:34;17.70;;;8.80;;
24273;SDS011;12392;42.678;23.380;2023-02-28T00:18:00;17.20;;;7.90;;
24273;SDS011;12392;42.678;23.380;2023-02-28T00:20:27;15.32;;;8.07;;
24273;SDS011;12392;42.678;23.380;2023-02-28T00:22:53;14.25;;;7.85;;
24273;SDS011;12392;42.678;23.380;2023-02-28T00:25:20;17.75;;;8.82;;
24273;SDS011;12392;42.678;23.380;2023-02-28T00:27:48;24.08;;;10.25;;
24273;SDS011;12392;42.678;23.380;2023-02-28T00:30:20;20.08;;;10.70;;
24273;SDS011;12392;42.678;23.380;2023-02-28T00:32:47;18.27;;;10.02;;
24273;SDS011;12392;42.678;23.380;2023-02-28T00:35:14;17.25;;;9.63;;
24273;SDS011;12392;42.678;23.380;2023-02-28T00:37:40;18.65;;;9.57;;
24273;SDS011;12392;42.678;23.380;2023-02-28T00:40:06;20.80;;;9.77;;
24273;SDS011;12392;42.678;23.380;2023-02-28T00:42:34;17.50;;;9.75;;
24273;SDS011;12392;42.678;23.380;2023-02-28T00:45:00;19.33;;;9.98;;
24273;SDS011;12392;42.678;23.380;2023-02-28T00:47:26;21.15;;;10.10;;
24273;SDS011;12392;42.678;23.380;2023-02-28T00:49:52;19.95;;;9.82;;
24273;SDS011;12392;42.678;23.380;2023-02-28T00:52:17;19.98;;;8.43;;
24273;SDS011;12392;42.678;23.380;2023-02-28T00:54:43;17.65;;;8.65;;
24273;SDS011;12392;42.678;23.380;2023-02-28T00:57:09;20.98;;;10.95;;
24273;SDS011;12392;42.678;23.380;2023-02-28T00:59:34;22.27;;;10.88;;
24273;SDS011;12392;42.678;23.380;2023-02-28T01:02:00;21.92;;;11.23;;
24273;SDS011;12392;42.678;23.380;2023-02-28T01:04:26;20.73;;;10.55;;
24273;SDS011;12392;42.678;23.380;2023-02-28T01:06:52;22.48;;;10.88;;
24273;SDS011;12392;42.678;23.380;2023-02-28T01:09:17;20.90;;;10.15;;
24273;SDS011;12392;42.678;23.380;2023-02-28T01:11:43;22.90;;;10.77;;
24273;SDS011;12392;42.678;23.380;2023-02-28T01:14:11;20.10;;;10.80;;
24273;SDS011;12392;42.678;23.380;2023-02-28T01:16:41;23.83;;;10.47;;
24273;SDS011;12392;42.678;23.380;2023-02-28T01:19:06;21.38;;;10.95;;
24273;SDS011;12392;42.678;23.380;2023-02-28T01:21:32;20.75;;;11.23;;
24273;SDS011;12392;42.678;23.380;2023-02-28T01:23:59;22.67;;;9.95;;
24273;SDS011;12392;42.678;23.380;2023-02-28T01:26:25;23.70;;;11.38;;
24273;SDS011;12392;42.678;23.380;2023-02-28T01:28:51;19.00;;;9.65;;
24273;SDS011;12392;42.678;23.380;2023-02-28T01:31:18;20.70;;;9.35;;
24273;SDS011;12392;42.678;23.380;2023-02-28T01:33:44;22.35;;;10.88;;
24273;SDS011;12392;42.678;23.380;2023-02-28T01:36:11;17.20;;;9.75;;
24273;SDS011;12392;42.678;23.380;2023-02-28T01:38:38;18.75;;;9.75;;
24273;SDS011;12392;42.678;23.380;2023-02-28T01:41:05;20.77;;;10.13;;
24273;SDS011;12392;42.678;23.380;2023-02-28T01:46:09;19.63;;;10.77;;
24273;SDS011;12392;42.678;23.380;2023-02-28T01:48:37;26.00;;;10.32;;
24273;SDS011;12392;42.678;23.380;2023-02-28T01:51:05;22.25;;;10.23;;
24273;SDS011;12392;42.678;23.380;2023-02-28T01:53:39;18.98;;;10.52;;
24273;SDS011;12392;42.678;23.380;2023-02-28T01:56:08;23.88;;;10.75;;
24273;SDS011;12392;42.678;23.380;2023-02-28T01:58:35;22.45;;;11.02;;
24273;SDS011;12392;42.678;23.380;2023-02-28T02:01:02;21.45;;;11.43;;
24273;SDS011;12392;42.678;23.380;2023-02-28T02:03:28;24.65;;;12.48;;
24273;SDS011;12392;42.678;23.380;2023-02-28T02:05:54;19.80;;;10.13;;
24273;SDS011;12392;42.678;23.380;2023-02-28T02:08:23;20.65;;;11.18;;
24273;SDS011;12392;42.678;23.380;2023-02-28T02:10:52;30.90;;;11.60;;
24273;SDS011;12392;42.678;23.380;2023-02-28T02:18:26;25.20;;;12.27;;
24273;SDS011;12392;42.678;23.380;2023-02-28T02:40:03;29.58;;;14.80;;
24273;SDS011;12392;42.678;23.380;2023-02-28T02:45:42;29.27;;;15.40;;
24273;SDS011;12392;42.678;23.380;2023-02-28T02:48:14;30.90;;;14.43;;
24273;SDS011;12392;42.678;23.380;2023-02-28T02:50:45;32.55;;;14.63;;
24273;SDS011;12392;42.678;23.380;2023-02-28T02:53:17;30.63;;;15.00;;
24273;SDS011;12392;42.678;23.380;2023-02-28T02:55:46;35.97;;;13.85;;
24273;SDS011;12392;42.678;23.380;2023-02-28T02:58:18;32.88;;;14.27;;
24273;SDS011;12392;42.678;23.380;2023-02-28T03:00:49;28.02;;;13.52;;
24273;SDS011;12392;42.678;23.380;2023-02-28T03:03:18;31.65;;;15.00;;
24273;SDS011;12392;42.678;23.380;2023-02-28T03:05:54;35.05;;;15.52;;
24273;SDS011;12392;42.678;23.380;2023-02-28T03:08:23;41.78;;;17.00;;
24273;SDS011;12392;42.678;23.380;2023-02-28T03:10:57;33.50;;;15.18;;
24273;SDS011;12392;42.678;23.380;2023-02-28T03:26:53;32.50;;;14.82;;
24273;SDS011;12392;42.678;23.380;2023-02-28T03:29:32;38.45;;;16.77;;
24273;SDS011;12392;42.678;23.380;2023-02-28T03:32:17;35.47;;;14.85;;
24273;SDS011;12392;42.678;23.380;2023-02-28T03:35:02;28.40;;;12.80;;
24273;SDS011;12392;42.678;23.380;2023-02-28T03:37:35;29.52;;;13.45;;
24273;SDS011;12392;42.678;23.380;2023-02-28T03:40:04;32.88;;;13.77;;
24273;SDS011;12392;42.678;23.380;2023-02-28T03:42:37;31.92;;;13.60;;
24273;SDS011;12392;42.678;23.380;2023-02-28T03:45:08;27.65;;;13.15;;
24273;SDS011;12392;42.678;23.380;2023-02-28T03:47:41;42.03;;;13.82;;
24273;SDS011;12392;42.678;23.380;2023-02-28T03:50:34;35.35;;;14.40;;
24273;SDS011;12392;42.678;23.380;2023-02-28T03:53:25;32.42;;;14.20;;
24273;SDS011;12392;42.678;23.380;2023-02-28T03:55:49;34.92;;;14.65;;
24273;SDS011;12392;42.678;23.380;2023-02-28T03:58:37;30.42;;;14.23;;
24273;SDS011;12392;42.678;23.380;2023-02-28T04:01:16;34.58;;;14.75;;
24273;SDS011;12392;42.678;23.380;2023-02-28T04:04:02;32.72;;;13.52;;
24273;SDS011;12392;42.678;23.380;2023-02-28T04:06:29;32.42;;;13.02;;
24273;SDS011;12392;42.678;23.380;2023-02-28T04:08:56;33.20;;;14.90;;
24273;SDS011;12392;42.678;23.380;2023-02-28T04:13:49;30.20;;;14.65;;
24273;SDS011;12392;42.678;23.380;2023-02-28T04:16:15;30.30;;;15.00;;
24273;SDS011;12392;42.678;23.380;2023-02-28T04:18:41;36.78;;;15.70;;
24273;SDS011;12392;42.678;23.380;2023-02-28T04:21:10;33.20;;;15.48;;
24273;SDS011;12392;42.678;23.380;2023-02-28T04:23:36;37.55;;;17.00;;
24273;SDS011;12392;42.678;23.380;2023-02-28T04:26:08;34.33;;;15.18;;
24273;SDS011;12392;42.678;23.380;2023-02-28T04:28:33;41.17;;;16.80;;
24273;SDS011;12392;42.678;23.380;2023-02-28T04:31:00;40.45;;;17.42;;
24273;SDS011;12392;42.678;23.380;2023-02-28T04:33:28;36.92;;;15.02;;
24273;SDS011;12392;42.678;23.380;2023-02-28T04:36:00;34.22;;;15.32;;
24273;SDS011;12392;42.678;23.380;2023-02-28T04:38:37;32.58;;;15.50;;
24273;SDS011;12392;42.678;23.380;2023-02-28T04:41:04;28.00;;;12.77;;
24273;SDS011;12392;42.678;23.380;2023-02-28T04:43:30;31.98;;;15.15;;
24273;SDS011;12392;42.678;23.380;2023-02-28T04:45:57;33.83;;;14.23;;
24273;SDS011;12392;42.678;23.380;2023-02-28T04:48:24;33.50;;;13.23;;
24273;SDS011;12392;42.678;23.380;2023-02-28T04:50:50;32.95;;;12.55;;
24273;SDS011;12392;42.678;23.380;2023-02-28T04:53:16;33.88;;;14.52;;
24273;SDS011;12392;42.678;23.380;2023-02-28T04:55:43;35.38;;;14.20;;
24273;SDS011;12392;42.678;23.380;2023-02-28T04:58:08;33.33;;;13.95;;
24273;SDS011;12392;42.678;23.380;2023-02-28T05:00:34;30.88;;;14.02;;
24273;SDS011;12392;42.678;23.380;2023-02-28T05:03:00;31.73;;;13.43;;
24273;SDS011;12392;42.678;23.380;2023-02-28T05:05:25;36.67;;;14.40;;
24273;SDS011;12392;42.678;23.380;2023-02-28T05:07:51;42.13;;;19.70;;
24273;SDS011;12392;42.678;23.380;2023-02-28T05:10:18;43.90;;;22.15;;
24273;SDS011;12392;42.678;23.380;2023-02-28T05:12:44;44.92;;;21.98;;
24273;SDS011;12392;42.678;23.380;2023-02-28T05:15:14;40.97;;;22.38;;
24273;SDS011;12392;42.678;23.380;2023-02-28T05:17:43;54.03;;;27.73;;
24273;SDS011;12392;42.678;23.380;2023-02-28T05:20:10;51.97;;;29.35;;
24273;SDS011;12392;42.678;23.380;2023-02-28T05:22:36;56.78;;;28.90;;
24273;SDS011;12392;42.678;23.380;2023-02-28T05:25:03;48.00;;;23.85;;
24273;SDS011;12392;42.678;23.380;2023-02-28T05:27:30;47.30;;;22.48;;
24273;SDS011;12392;42.678;23.380;2023-02-28T05:29:56;44.28;;;22.23;;
24273;SDS011;12392;42.678;23.380;2023-02-28T05:32:21;44.72;;;21.52;;
24273;SDS011;12392;42.678;23.380;2023-02-28T05:34:47;44.90;;;21.60;;
24273;SDS011;12392;42.678;23.380;2023-02-28T05:37:13;44.95;;;21.45;;
24273;SDS011;12392;42.678;23.380;2023-02-28T05:39:40;38.80;;;18.38;;
24273;SDS011;12392;42.678;23.380;2023-02-28T05:42:06;34.97;;;17.85;;
24273;SDS011;12392;42.678;23.380;2023-02-28T05:44:32;45.50;;;21.77;;
24273;SDS011;12392;42.678;23.380;2023-02-28T05:46:58;55.78;;;25.05;;
24273;SDS011;12392;42.678;23.380;2023-02-28T05:49:24;59.53;;;27.08;;
24273;SDS011;12392;42.678;23.380;2023-02-28T05:51:49;48.25;;;19.85;;
24273;SDS011;12392;42.678;23.380;2023-02-28T05:54:15;34.80;;;15.60;;
24273;SDS011;12392;42.678;23.380;2023-02-28T05:56:41;35.53;;;15.57;;
24273;SDS011;12392;42.678;23.380;2023-02-28T05:59:11;37.30;;;16.20;;
24273;SDS011;12392;42.678;23.380;2023-02-28T06:01:38;40.72;;;17.10;;
24273;SDS011;12392;42.678;23.380;2023-02-28T06:04:05;38.33;;;17.35;;
24273;SDS011;12392;42.678;23.380;2023-02-28T06:06:46;41.85;;;16.75;;
24273;SDS011;12392;42.678;23.380;2023-02-28T06:09:15;39.50;;;15.77;;
24273;SDS011;12392;42.678;23.380;2023-02-28T06:11:41;42.53;;;16.80;;
24273;SDS011;12392;42.678;23.380;2023-02-28T06:14:17;31.63;;;14.57;;
24273;SDS011;12392;42.678;23.380;2023-02-28T06:16:43;39.45;;;16.20;;
24273;SDS011;12392;42.678;23.380;2023-02-28T06:19:09;42.20;;;16.38;;
24273;SDS011;12392;42.678;23.380;2023-02-28T06:21:35;48.80;;;18.30;;
24273;SDS011;12392;42.678;23.380;2023-02-28T06:24:01;43.92;;;18.30;;
24273;SDS011;12392;42.678;23.380;2023-02-28T06:26:30;41.47;;;18.98;;
24273;SDS011;12392;42.678;23.380;2023-02-28T06:28:55;47.72;;;17.83;;
24273;SDS011;12392;42.678;23.380;2023-02-28T06:31:22;38.95;;;18.30;;
24273;SDS011;12392;42.678;23.380;2023-02-28T06:33:49;46.55;;;17.77;;
24273;SDS011;12392;42.678;23.380;2023-02-28T06:36:15;33.70;;;14.73;;
24273;SDS011;12392;42.678;23.380;2023-02-28T06:38:41;31.05;;;14.07;;
24273;SDS011;12392;42.678;23.380;2023-02-28T06:41:08;26.67;;;13.35;;
24273;SDS011;12392;42.678;23.380;2023-02-28T06:43:35;26.13;;;13.95;;
24273;SDS011;12392;42.678;23.380;2023-02-28T06:46:03;29.35;;;14.18;;
24273;SDS011;12392;42.678;23.380;2023-02-28T06:48:30;31.05;;;14.40;;
24273;SDS011;12392;42.678;23.380;2023-02-28T06:51:03;37.47;;;15.77;;
24273;SDS011;12392;42.678;23.380;2023-02-28T06:53:33;30.92;;;15.80;;
24273;SDS011;12392;42.678;23.380;2023-02-28T06:55:59;32.50;;;14.57;;
24273;SDS011;12392;42.678;23.380;2023-02-28T06:58:28;46.75;;;20.17;;
24273;SDS011;12392;42.678;23.380;2023-02-28T07:00:54;50.20;;;21.55;;
24273;SDS011;12392;42.678;23.380;2023-02-28T07:03:21;33.00;;;14.68;;
24273;SDS011;12392;42.678;23.380;2023-02-28T07:05:47;34.65;;;15.85;;
24273;SDS011;12392;42.678;23.380;2023-02-28T07:08:12;27.50;;;14.90;;
24273;SDS011;12392;42.678;23.380;2023-02-28T07:10:38;28.17;;;13.07;;
24273;SDS011;12392;42.678;23.380;2023-02-28T07:13:05;26.67;;;12.40;;
24273;SDS011;12392;42.678;23.380;2023-02-28T07:15:31;21.80;;;11.68;;
24273;SDS011;12392;42.678;23.380;2023-02-28T07:17:57;25.98;;;12.90;;
24273;SDS011;12392;42.678;23.380;2023-02-28T07:20:23;28.73;;;13.85;;
24273;SDS011;12392;42.678;23.380;2023-02-28T07:22:49;22.63;;;13.50;;
24273;SDS011;12392;42.678;23.380;2023-02-28T07:25:25;20.53;;;11.03;;
24273;SDS011;12392;42.678;23.380;2023-02-28T07:27:51;25.23;;;13.68;;
24273;SDS011;12392;42.678;23.380;2023-02-28T07:30:17;23.58;;;13.45;;
24273;SDS011;12392;42.678;23.380;2023-02-28T07:32:43;21.92;;;12.13;;
24273;SDS011;12392;42.678;23.380;2023-02-28T07:35:09;23.88;;;12.93;;
24273;SDS011;12392;42.678;23.380;2023-02-28T07:37:35;30.33;;;15.10;;
24273;SDS011;12392;42.678;23.380;2023-02-28T07:40:04;28.65;;;15.65;;
24273;SDS011;12392;42.678;23.380;2023-02-28T07:42:33;29.07;;;15.37;;
24273;SDS011;12392;42.678;23.380;2023-02-28T07:44:59;27.27;;;14.82;;
24273;SDS011;12392;42.678;23.380;2023-02-28T07:47:25;30.80;;;16.42;;
24273;SDS011;12392;42.678;23.380;2023-02-28T07:49:51;28.40;;;15.73;;
24273;SDS011;12392;42.678;23.380;2023-02-28T07:52:17;28.60;;;14.95;;
24273;SDS011;12392;42.678;23.380;2023-02-28T07:54:43;29.30;;;16.00;;
24273;SDS011;12392;42.678;23.380;2023-02-28T07:57:08;34.13;;;18.35;;
24273;SDS011;12392;42.678;23.380;2023-02-28T07:59:34;32.03;;;17.60;;
24273;SDS011;12392;42.678;23.380;2023-02-28T08:02:00;35.47;;;18.00;;
24273;SDS011;12392;42.678;23.380;2023-02-28T08:04:26;32.97;;;17.55;;
24273;SDS011;12392;42.678;23.380;2023-02-28T08:06:51;35.70;;;19.83;;
24273;SDS011;12392;42.678;23.380;2023-02-28T08:09:18;46.20;;;24.35;;
24273;SDS011;12392;42.678;23.380;2023-02-28T08:11:44;42.55;;;22.45;;
24273;SDS011;12392;42.678;23.380;2023-02-28T08:14:09;40.03;;;22.27;;
24273;SDS011;12392;42.678;23.380;2023-02-28T08:16:35;45.17;;;20.95;;
24273;SDS011;12392;42.678;23.380;2023-02-28T08:19:01;39.63;;;20.50;;
24273;SDS011;12392;42.678;23.380;2023-02-28T08:21:26;35.50;;;20.30;;
24273;SDS011;12392;42.678;23.380;2023-02-28T08:23:52;38.83;;;20.33;;
24273;SDS011;12392;42.678;23.380;2023-02-28T08:26:18;33.60;;;17.23;;
24273;SDS011;12392;42.678;23.380;2023-02-28T08:28:44;33.75;;;18.85;;
24273;SDS011;12392;42.678;23.380;2023-02-28T08:31:10;38.50;;;21.17;;
24273;SDS011;12392;42.678;23.380;2023-02-28T08:33:38;50.00;;;28.10;;
24273;SDS011;12392;42.678;23.380;2023-02-28T08:36:04;39.25;;;21.60;;
24273;SDS011;12392;42.678;23.380;2023-02-28T08:38:31;20.30;;;10.38;;
24273;SDS011;12392;42.678;23.380;2023-02-28T08:40:58;24.40;;;10.45;;
24273;SDS011;12392;42.678;23.380;2023-02-28T08:43:25;26.23;;;11.02;;
24273;SDS011;12392;42.678;23.380;2023-02-28T08:45:51;25.25;;;11.07;;
24273;SDS011;12392;42.678;23.380;2023-02-28T08:48:17;33.33;;;11.43;;
24273;SDS011;12392;42.678;23.380;2023-02-28T08:50:43;24.30;;;11.43;;
24273;SDS011;12392;42.678;23.380;2023-02-28T08:53:09;28.10;;;12.15;;
24273;SDS011;12392;42.678;23.380;2023-02-28T08:55:34;22.42;;;9.90;;
24273;SDS011;12392;42.678;23.380;2023-02-28T08:58:00;21.50;;;10.27;;
24273;SDS011;12392;42.678;23.380;2023-02-28T09:00:26;27.50;;;11.45;;
24273;SDS011;12392;42.678;23.380;2023-02-28T09:02:52;27.80;;;11.82;;
24273;SDS011;12392;42.678;23.380;2023-02-28T09:05:18;22.45;;;10.60;;
24273;SDS011;12392;42.678;23.380;2023-02-28T09:07:43;25.05;;;10.20;;
24273;SDS011;12392;42.678;23.380;2023-02-28T09:10:09;26.65;;;9.93;;
24273;SDS011;12392;42.678;23.380;2023-02-28T09:12:35;26.05;;;9.45;;
24273;SDS011;12392;42.678;23.380;2023-02-28T09:15:01;23.85;;;10.30;;
24273;SDS011;12392;42.678;23.380;2023-02-28T09:17:28;25.52;;;10.60;;
24273;SDS011;12392;42.678;23.380;2023-02-28T09:19:53;33.00;;;10.95;;
24273;SDS011;12392;42.678;23.380;2023-02-28T09:22:19;26.45;;;9.88;;
24273;SDS011;12392;42.678;23.380;2023-02-28T09:24:45;26.75;;;10.02;;
24273;SDS011;12392;42.678;23.380;2023-02-28T09:27:10;16.45;;;8.13;;
24273;SDS011;12392;42.678;23.380;2023-02-28T09:29:36;28.33;;;9.70;;
24273;SDS011;12392;42.678;23.380;2023-02-28T09:32:02;20.63;;;10.30;;
24273;SDS011;12392;42.678;23.380;2023-02-28T09:34:30;21.50;;;9.63;;
24273;SDS011;12392;42.678;23.380;2023-02-28T09:36:56;18.90;;;8.10;;
24273;SDS011;12392;42.678;23.380;2023-02-28T09:39:22;21.35;;;10.85;;
24273;SDS011;12392;42.678;23.380;2023-02-28T09:41:50;22.40;;;9.77;;
24273;SDS011;12392;42.678;23.380;2023-02-28T09:44:29;20.05;;;8.57;;
24273;SDS011;12392;42.678;23.380;2023-02-28T09:49:58;17.67;;;8.75;;
24273;SDS011;12392;42.678;23.380;2023-02-28T09:52:29;17.55;;;8.35;;
24273;SDS011;12392;42.678;23.380;2023-02-28T09:54:55;22.67;;;7.82;;
24273;SDS011;12392;42.678;23.380;2023-02-28T09:57:41;18.02;;;9.00;;
24273;SDS011;12392;42.678;23.380;2023-02-28T10:00:13;35.72;;;15.05;;
24273;SDS011;12392;42.678;23.380;2023-02-28T10:05:17;22.73;;;9.02;;
24273;SDS011;12392;42.678;23.380;2023-02-28T10:13:52;17.65;;;7.88;;
24273;SDS011;12392;42.678;23.380;2023-02-28T10:16:20;19.20;;;7.30;;
24273;SDS011;12392;42.678;23.380;2023-02-28T10:19:13;23.25;;;6.93;;
24273;SDS011;12392;42.678;23.380;2023-02-28T10:21:42;18.30;;;7.32;;
24273;SDS011;12392;42.678;23.380;2023-02-28T10:24:32;14.60;;;7.35;;
24273;SDS011;12392;42.678;23.380;2023-02-28T10:27:14;23.50;;;6.20;;
24273;SDS011;12392;42.678;23.380;2023-02-28T10:29:43;16.52;;;7.10;;
24273;SDS011;12392;42.678;23.380;2023-02-28T10:32:32;28.20;;;7.63;;
24273;SDS011;12392;42.678;23.380;2023-02-28T10:37:43;21.95;;;8.73;;
24273;SDS011;12392;42.678;23.380;2023-02-28T10:43:01;17.73;;;6.68;;
24273;SDS011;12392;42.678;23.380;2023-02-28T10:45:29;14.98;;;8.65;;
24273;SDS011;12392;42.678;23.380;2023-02-28T10:47:57;15.57;;;6.13;;
24273;SDS011;12392;42.678;23.380;2023-02-28T10:50:37;14.95;;;6.55;;
24273;SDS011;12392;42.678;23.380;2023-02-28T10:56:14;16.58;;;7.28;;
24273;SDS011;12392;42.678;23.380;2023-02-28T10:58:45;15.70;;;7.78;;
24273;SDS011;12392;42.678;23.380;2023-02-28T11:01:19;17.25;;;7.22;;
24273;SDS011;12392;42.678;23.380;2023-02-28T11:03:48;5.10;;;3.38;;
24273;SDS011;12392;42.678;23.380;2023-02-28T11:06:15;13.48;;;5.70;;
24273;SDS011;12392;42.678;23.380;2023-02-28T11:08:47;8.40;;;3.58;;
24273;SDS011;12392;42.678;23.380;2023-02-28T11:11:14;6.78;;;3.50;;
24273;SDS011;12392;42.678;23.380;2023-02-28T11:13:42;13.85;;;6.30;;
24273;SDS011;12392;42.678;23.380;2023-02-28T11:16:10;14.65;;;7.10;;
24273;SDS011;12392;42.678;23.380;2023-02-28T11:21:18;17.10;;;7.75;;
24273;SDS011;12392;42.678;23.380;2023-02-28T11:23:52;17.05;;;7.10;;
24273;SDS011;12392;42.678;23.380;2023-02-28T11:26:44;16.98;;;8.93;;
24273;SDS011;12392;42.678;23.380;2023-02-28T11:29:26;19.40;;;7.57;;
24273;SDS011;12392;42.678;23.380;2023-02-28T11:34:47;10.70;;;6.43;;
24273;SDS011;12392;42.678;23.380;2023-02-28T11:37:29;25.75;;;8.25;;
24273;SDS011;12392;42.678;23.380;2023-02-28T11:39:56;19.20;;;7.47;;
24273;SDS011;12392;42.678;23.380;2023-02-28T11:42:32;15.85;;;7.63;;
24273;SDS011;12392;42.678;23.380;2023-02-28T11:51:02;17.27;;;6.65;;
24273;SDS011;12392;42.678;23.380;2023-02-28T12:02:02;19.33;;;8.15;;
24273;SDS011;12392;42.678;23.380;2023-02-28T12:10:21;15.85;;;6.32;;
24273;SDS011;12392;42.678;23.380;2023-02-28T12:18:00;16.10;;;7.10;;
24273;SDS011;12392;42.678;23.380;2023-02-28T12:20:41;21.40;;;8.90;;
24273;SDS011;12392;42.678;23.380;2023-02-28T12:29:16;17.48;;;8.20;;
24273;SDS011;12392;42.678;23.380;2023-02-28T12:32:18;19.08;;;8.15;;
24273;SDS011;12392;42.678;23.380;2023-02-28T12:35:03;19.63;;;8.27;;
24273;SDS011;12392;42.678;23.380;2023-02-28T12:37:41;15.32;;;7.05;;
24273;SDS011;12392;42.678;23.380;2023-02-28T12:42:39;16.13;;;7.47;;
24273;SDS011;12392;42.678;23.380;2023-02-28T12:45:19;13.43;;;7.13;;
24273;SDS011;12392;42.678;23.380;2023-02-28T12:47:49;12.98;;;6.28;;
24273;SDS011;12392;42.678;23.380;2023-02-28T12:50:17;17.17;;;7.60;;
24273;SDS011;12392;42.678;23.380;2023-02-28T12:52:57;14.75;;;7.13;;
24273;SDS011;12392;42.678;23.380;2023-02-28T13:00:55;15.95;;;7.80;;
24273;SDS011;12392;42.678;23.380;2023-02-28T13:03:45;16.95;;;7.55;;
24273;SDS011;12392;42.678;23.380;2023-02-28T13:06:45;17.40;;;6.63;;
24273;SDS011;12392;42.678;23.380;2023-02-28T13:09:36;19.83;;;6.25;;
24273;SDS011;12392;42.678;23.380;2023-02-28T13:12:04;15.63;;;6.65;;
24273;SDS011;12392;42.678;23.380;2023-02-28T13:14:38;15.65;;;7.53;;
24273;SDS011;12392;42.678;23.380;2023-02-28T13:19:43;20.25;;;8.18;;
24273;SDS011;12392;42.678;23.380;2023-02-28T13:22:20;20.52;;;8.45;;
24273;SDS011;12392;42.678;23.380;2023-02-28T13:25:04;15.80;;;8.30;;
24273;SDS011;12392;42.678;23.380;2023-02-28T13:28:10;21.70;;;7.57;;
24273;SDS011;12392;42.678;23.380;2023-02-28T13:33:36;17.60;;;8.10;;
24273;SDS011;12392;42.678;23.380;2023-02-28T13:36:24;19.48;;;7.78;;
24273;SDS011;12392;42.678;23.380;2023-02-28T13:39:11;15.90;;;6.03;;
24273;SDS011;12392;42.678;23.380;2023-02-28T13:47:51;18.75;;;7.88;;
24273;SDS011;12392;42.678;23.380;2023-02-28T13:55:58;21.70;;;7.20;;
24273;SDS011;12392;42.678;23.380;2023-02-28T14:06:47;13.18;;;6.07;;
24273;SDS011;12392;42.678;23.380;2023-02-28T14:12:49;15.27;;;5.50;;
24273;SDS011;12392;42.678;23.380;2023-02-28T14:15:02;11.30;;;6.43;;
24273;SDS011;12392;42.678;23.380;2023-02-28T14:17:28;14.88;;;6.63;;
24273;SDS011;12392;42.678;23.380;2023-02-28T14:19:54;13.50;;;6.03;;
24273;SDS011;12392;42.678;23.380;2023-02-28T14:38:46;16.13;;;7.25;;
24273;SDS011;12392;42.678;23.380;2023-02-28T14:41:30;20.88;;;6.38;;
24273;SDS011;12392;42.678;23.380;2023-02-28T14:44:00;15.43;;;7.22;;
24273;SDS011;12392;42.678;23.380;2023-02-28T14:46:28;14.02;;;6.63;;
24273;SDS011;12392;42.678;23.380;2023-02-28T14:49:00;14.52;;;6.85;;
24273;SDS011;12392;42.678;23.380;2023-02-28T14:51:26;20.80;;;7.45;;
24273;SDS011;12392;42.678;23.380;2023-02-28T14:54:01;16.23;;;7.63;;
24273;SDS011;12392;42.678;23.380;2023-02-28T14:56:48;19.38;;;7.22;;
24273;SDS011;12392;42.678;23.380;2023-02-28T14:59:25;15.77;;;5.72;;
24273;SDS011;12392;42.678;23.380;2023-02-28T15:02:29;10.70;;;6.55;;
24273;SDS011;12392;42.678;23.380;2023-02-28T15:04:54;14.38;;;6.10;;
24273;SDS011;12392;42.678;23.380;2023-02-28T15:07:21;19.73;;;6.03;;
24273;SDS011;12392;42.678;23.380;2023-02-28T15:12:46;14.25;;;5.38;;
24273;SDS011;12392;42.678;23.380;2023-02-28T15:15:17;12.90;;;5.68;;
24273;SDS011;12392;42.678;23.380;2023-02-28T15:17:52;13.45;;;5.60;;
24273;SDS011;12392;42.678;23.380;2023-02-28T15:20:19;19.83;;;6.50;;
24273;SDS011;12392;42.678;23.380;2023-02-28T15:22:46;10.10;;;4.72;;
24273;SDS011;12392;42.678;23.380;2023-02-28T15:25:13;14.65;;;6.20;;
24273;SDS011;12392;42.678;23.380;2023-02-28T15:27:44;14.48;;;5.28;;
24273;SDS011;12392;42.678;23.380;2023-02-28T15:30:19;16.48;;;5.05;;
24273;SDS011;12392;42.678;23.380;2023-02-28T15:33:04;10.85;;;4.63;;
24273;SDS011;12392;42.678;23.380;2023-02-28T15:35:51;10.30;;;5.68;;
24273;SDS011;12392;42.678;23.380;2023-02-28T15:38:24;16.13;;;6.38;;
24273;SDS011;12392;42.678;23.380;2023-02-28T15:40:52;13.95;;;7.10;;
24273;SDS011;12392;42.678;23.380;2023-02-28T15:43:29;15.65;;;6.50;;
24273;SDS011;12392;42.678;23.380;2023-02-28T15:46:06;9.10;;;4.20;;
24273;SDS011;12392;42.678;23.380;2023-02-28T15:48:58;13.98;;;4.82;;
24273;SDS011;12392;42.678;23.380;2023-02-28T15:54:07;8.57;;;4.78;;
24273;SDS011;12392;42.678;23.380;2023-02-28T15:56:55;11.00;;;5.18;;
24273;SDS011;12392;42.678;23.380;2023-02-28T15:59:26;9.70;;;5.03;;
24273;SDS011;12392;42.678;23.380;2023-02-28T16:04:34;11.20;;;5.65;;
24273;SDS011;12392;42.678;23.380;2023-02-28T16:07:02;9.00;;;4.88;;
24273;SDS011;12392;42.678;23.380;2023-02-28T16:09:37;10.32;;;5.05;;
24273;SDS011;12392;42.678;23.380;2023-02-28T16:12:03;6.72;;;4.20;;
24273;SDS011;12392;42.678;23.380;2023-02-28T16:14:30;11.45;;;4.32;;
24273;SDS011;12392;42.678;23.380;2023-02-28T16:16:57;10.45;;;4.53;;
24273;SDS011;12392;42.678;23.380;2023-02-28T16:19:28;11.43;;;5.82;;
24273;SDS011;12392;42.678;23.380;2023-02-28T16:21:54;6.55;;;3.33;;
24273;SDS011;12392;42.678;23.380;2023-02-28T16:24:20;12.35;;;4.72;;
24273;SDS011;12392;42.678;23.380;2023-02-28T16:26:47;10.40;;;4.82;;
24273;SDS011;12392;42.678;23.380;2023-02-28T16:29:15;10.90;;;4.97;;
24273;SDS011;12392;42.678;23.380;2023-02-28T16:31:52;9.93;;;4.43;;
24273;SDS011;12392;42.678;23.380;2023-02-28T16:34:21;8.88;;;3.92;;
24273;SDS011;12392;42.678;23.380;2023-02-28T16:36:47;5.63;;;3.00;;
24273;SDS011;12392;42.678;23.380;2023-02-28T16:39:13;11.93;;;4.28;;
24273;SDS011;12392;42.678;23.380;2023-02-28T16:41:41;7.95;;;4.28;;
24273;SDS011;12392;42.678;23.380;2023-02-28T16:44:10;9.07;;;3.45;;
24273;SDS011;12392;42.678;23.380;2023-02-28T16:46:46;8.38;;;4.00;;
24273;SDS011;12392;42.678;23.380;2023-02-28T16:49:12;7.60;;;3.95;;
24273;SDS011;12392;42.678;23.380;2023-02-28T16:51:38;1.65;;;1.00;;
24273;SDS011;12392;42.678;23.380;2023-02-28T16:54:04;12.70;;;4.53;;
24273;SDS011;12392;42.678;23.380;2023-02-28T16:56:29;10.32;;;5.18;;
24273;SDS011;12392;42.678;23.380;2023-02-28T16:58:58;10.82;;;4.93;;
24273;SDS011;12392;42.678;23.380;2023-02-28T17:01:25;9.30;;;4.60;;
24273;SDS011;12392;42.678;23.380;2023-02-28T17:03:52;9.82;;;5.03;;
24273;SDS011;12392;42.678;23.380;2023-02-28T17:06:25;8.63;;;3.30;;
24273;SDS011;12392;42.678;23.380;2023-02-28T17:08:55;6.88;;;2.70;;
24273;SDS011;12392;42.678;23.380;2023-02-28T17:11:22;5.97;;;2.92;;
24273;SDS011;12392;42.678;23.380;2023-02-28T17:13:49;4.20;;;2.38;;
24273;SDS011;12392;42.678;23.380;2023-02-28T17:16:17;4.93;;;2.42;;